sensor_id;sensor_type;location;lat;lon;timestamp;P1;durP1;ratioP1;P2;durP2;ratioP2
18224;SDS011;9237;48.590;8.854;2022-10-16T00:01:52;0.70;;;0.70;;
18224;SDS011;9237;48.590;8.854;2022-10-16T00:04:20;0.70;;;0.70;;
18224;SDS011;9237;48.590;8.854;2022-10-16T00:06:47;0.70;;;0.70;;
18224;SDS011;9237;48.590;8.854;2022-10-16T00:09:13;0.70;;;0.70;;
18224;SDS011;9237;48.590;8.854;2022-10-16T00:11:40;0.70;;;0.70;;
18224;SDS011;9237;48.590;8.854;2022-10-16T00:14:09;0.80;;;0.80;;
18224;SDS011;9237;48.590;8.854;2022-10-16T00:16:38;0.70;;;0.70;;
18224;SDS011;9237;48.590;8.854;2022-10-16T00:19:06;0.80;;;0.80;;
18224;SDS011;9237;48.590;8.854;2022-10-16T00:21:34;0.80;;;0.80;;
18224;SDS011;9237;48.590;8.854;2022-10-16T00:24:02;0.80;;;0.80;;
18224;SDS011;9237;48.590;8.854;2022-10-16T00:26:31;0.80;;;0.80;;
18224;SDS011;9237;48.590;8.854;2022-10-16T00:28:59;0.70;;;0.70;;
18224;SDS011;9237;48.590;8.854;2022-10-16T00:31:26;0.70;;;0.70;;
18224;SDS011;9237;48.590;8.854;2022-10-16T00:33:53;0.80;;;0.80;;
18224;SDS011;9237;48.590;8.854;2022-10-16T00:36:21;0.80;;;0.80;;
18224;SDS011;9237;48.590;8.854;2022-10-16T00:38:51;0.80;;;0.80;;
18224;SDS011;9237;48.590;8.854;2022-10-16T00:41:20;0.70;;;0.70;;
18224;SDS011;9237;48.590;8.854;2022-10-16T00:43:49;0.80;;;0.80;;
18224;SDS011;9237;48.590;8.854;2022-10-16T00:46:19;0.80;;;0.80;;
18224;SDS011;9237;48.590;8.854;2022-10-16T00:48:49;0.80;;;0.80;;
18224;SDS011;9237;48.590;8.854;2022-10-16T00:51:18;0.70;;;0.70;;
18224;SDS011;9237;48.590;8.854;2022-10-16T00:53:47;0.80;;;0.80;;
18224;SDS011;9237;48.590;8.854;2022-10-16T00:56:16;0.77;;;0.77;;
18224;SDS011;9237;48.590;8.854;2022-10-16T00:58:44;0.70;;;0.70;;
18224;SDS011;9237;48.590;8.854;2022-10-16T01:01:11;0.70;;;0.70;;
18224;SDS011;9237;48.590;8.854;2022-10-16T01:03:38;0.80;;;0.80;;
18224;SDS011;9237;48.590;8.854;2022-10-16T01:06:08;0.80;;;0.80;;
18224;SDS011;9237;48.590;8.854;2022-10-16T01:08:44;0.70;;;0.70;;
18224;SDS011;9237;48.590;8.854;2022-10-16T01:11:22;0.80;;;0.80;;
18224;SDS011;9237;48.590;8.854;2022-10-16T01:13:54;0.70;;;0.70;;
18224;SDS011;9237;48.590;8.854;2022-10-16T01:16:27;0.77;;;0.77;;
18224;SDS011;9237;48.590;8.854;2022-10-16T01:19:01;0.70;;;0.70;;
18224;SDS011;9237;48.590;8.854;2022-10-16T01:21:36;0.80;;;0.80;;
18224;SDS011;9237;48.590;8.854;2022-10-16T01:24:08;0.70;;;0.70;;
18224;SDS011;9237;48.590;8.854;2022-10-16T01:29:35;0.70;;;0.70;;
18224;SDS011;9237;48.590;8.854;2022-10-16T01:32:09;0.80;;;0.80;;
18224;SDS011;9237;48.590;8.854;2022-10-16T01:34:42;0.70;;;0.70;;
18224;SDS011;9237;48.590;8.854;2022-10-16T01:37:14;0.70;;;0.70;;
18224;SDS011;9237;48.590;8.854;2022-10-16T01:39:47;0.70;;;0.70;;
18224;SDS011;9237;48.590;8.854;2022-10-16T01:42:16;0.70;;;0.70;;
18224;SDS011;9237;48.590;8.854;2022-10-16T01:44:48;0.70;;;0.70;;
18224;SDS011;9237;48.590;8.854;2022-10-16T01:47:17;0.70;;;0.70;;
18224;SDS011;9237;48.590;8.854;2022-10-16T01:49:48;0.70;;;0.70;;
18224;SDS011;9237;48.590;8.854;2022-10-16T01:52:17;0.60;;;0.60;;
18224;SDS011;9237;48.590;8.854;2022-10-16T01:54:47;0.70;;;0.70;;
18224;SDS011;9237;48.590;8.854;2022-10-16T01:57:18;0.70;;;0.70;;
18224;SDS011;9237;48.590;8.854;2022-10-16T01:59:48;0.70;;;0.70;;
18224;SDS011;9237;48.590;8.854;2022-10-16T02:02:18;0.70;;;0.70;;
18224;SDS011;9237;48.590;8.854;2022-10-16T02:04:47;0.70;;;0.70;;
18224;SDS011;9237;48.590;8.854;2022-10-16T02:07:17;0.70;;;0.70;;
18224;SDS011;9237;48.590;8.854;2022-10-16T02:09:44;0.70;;;0.70;;
18224;SDS011;9237;48.590;8.854;2022-10-16T02:12:12;0.70;;;0.70;;
18224;SDS011;9237;48.590;8.854;2022-10-16T02:14:44;0.70;;;0.70;;
18224;SDS011;9237;48.590;8.854;2022-10-16T02:17:14;0.70;;;0.70;;
18224;SDS011;9237;48.590;8.854;2022-10-16T02:19:42;0.70;;;0.70;;
18224;SDS011;9237;48.590;8.854;2022-10-16T02:22:14;0.70;;;0.70;;
18224;SDS011;9237;48.590;8.854;2022-10-16T02:24:46;0.70;;;0.70;;
18224;SDS011;9237;48.590;8.854;2022-10-16T02:27:20;0.70;;;0.70;;
18224;SDS011;9237;48.590;8.854;2022-10-16T02:29:52;0.70;;;0.70;;
18224;SDS011;9237;48.590;8.854;2022-10-16T02:32:27;0.60;;;0.60;;
18224;SDS011;9237;48.590;8.854;2022-10-16T02:34:57;0.70;;;0.70;;
18224;SDS011;9237;48.590;8.854;2022-10-16T02:37:26;0.60;;;0.60;;
18224;SDS011;9237;48.590;8.854;2022-10-16T02:39:54;0.70;;;0.70;;
18224;SDS011;9237;48.590;8.854;2022-10-16T02:42:27;0.70;;;0.70;;
18224;SDS011;9237;48.590;8.854;2022-10-16T02:44:54;0.70;;;0.70;;
18224;SDS011;9237;48.590;8.854;2022-10-16T02:47:21;0.70;;;0.70;;
18224;SDS011;9237;48.590;8.854;2022-10-16T02:49:49;0.70;;;0.70;;
18224;SDS011;9237;48.590;8.854;2022-10-16T02:52:16;0.70;;;0.70;;
18224;SDS011;9237;48.590;8.854;2022-10-16T02:54:43;0.70;;;0.70;;
18224;SDS011;9237;48.590;8.854;2022-10-16T02:57:10;0.70;;;0.70;;
18224;SDS011;9237;48.590;8.854;2022-10-16T02:59:37;0.70;;;0.70;;
18224;SDS011;9237;48.590;8.854;2022-10-16T03:02:03;0.70;;;0.70;;
18224;SDS011;9237;48.590;8.854;2022-10-16T03:04:30;0.60;;;0.60;;
18224;SDS011;9237;48.590;8.854;2022-10-16T03:06:58;0.70;;;0.70;;
18224;SDS011;9237;48.590;8.854;2022-10-16T03:09:25;0.70;;;0.70;;
18224;SDS011;9237;48.590;8.854;2022-10-16T03:11:52;0.70;;;0.70;;
18224;SDS011;9237;48.590;8.854;2022-10-16T03:14:19;0.70;;;0.70;;
18224;SDS011;9237;48.590;8.854;2022-10-16T03:16:45;0.70;;;0.70;;
18224;SDS011;9237;48.590;8.854;2022-10-16T03:19:12;0.70;;;0.70;;
18224;SDS011;9237;48.590;8.854;2022-10-16T03:21:39;0.70;;;0.70;;
18224;SDS011;9237;48.590;8.854;2022-10-16T03:24:07;0.70;;;0.70;;
18224;SDS011;9237;48.590;8.854;2022-10-16T03:26:34;0.70;;;0.70;;
18224;SDS011;9237;48.590;8.854;2022-10-16T03:29:01;0.70;;;0.70;;
18224;SDS011;9237;48.590;8.854;2022-10-16T03:31:29;0.70;;;0.70;;
18224;SDS011;9237;48.590;8.854;2022-10-16T03:33:56;0.70;;;0.70;;
18224;SDS011;9237;48.590;8.854;2022-10-16T03:36:23;0.70;;;0.70;;
18224;SDS011;9237;48.590;8.854;2022-10-16T03:38:50;0.60;;;0.60;;
18224;SDS011;9237;48.590;8.854;2022-10-16T03:41:18;0.70;;;0.70;;
18224;SDS011;9237;48.590;8.854;2022-10-16T03:43:45;0.67;;;0.67;;
18224;SDS011;9237;48.590;8.854;2022-10-16T03:46:12;0.70;;;0.70;;
18224;SDS011;9237;48.590;8.854;2022-10-16T03:48:39;0.70;;;0.70;;
18224;SDS011;9237;48.590;8.854;2022-10-16T03:51:06;0.60;;;0.60;;
18224;SDS011;9237;48.590;8.854;2022-10-16T03:53:32;0.70;;;0.70;;
18224;SDS011;9237;48.590;8.854;2022-10-16T03:55:59;0.70;;;0.70;;
18224;SDS011;9237;48.590;8.854;2022-10-16T03:58:27;0.70;;;0.70;;
18224;SDS011;9237;48.590;8.854;2022-10-16T04:00:54;0.70;;;0.70;;
18224;SDS011;9237;48.590;8.854;2022-10-16T04:03:21;0.70;;;0.70;;
18224;SDS011;9237;48.590;8.854;2022-10-16T04:05:48;0.70;;;0.70;;
18224;SDS011;9237;48.590;8.854;2022-10-16T04:08:15;0.70;;;0.70;;
18224;SDS011;9237;48.590;8.854;2022-10-16T04:10:43;0.70;;;0.70;;
18224;SDS011;9237;48.590;8.854;2022-10-16T04:13:10;0.80;;;0.80;;
18224;SDS011;9237;48.590;8.854;2022-10-16T04:15:38;0.70;;;0.70;;
18224;SDS011;9237;48.590;8.854;2022-10-16T04:18:05;0.70;;;0.70;;
18224;SDS011;9237;48.590;8.854;2022-10-16T04:20:32;0.70;;;0.70;;
18224;SDS011;9237;48.590;8.854;2022-10-16T04:22:59;0.70;;;0.70;;
18224;SDS011;9237;48.590;8.854;2022-10-16T04:25:26;0.70;;;0.70;;
18224;SDS011;9237;48.590;8.854;2022-10-16T04:27:53;0.70;;;0.70;;
18224;SDS011;9237;48.590;8.854;2022-10-16T04:30:21;0.70;;;0.70;;
18224;SDS011;9237;48.590;8.854;2022-10-16T04:32:49;0.70;;;0.70;;
18224;SDS011;9237;48.590;8.854;2022-10-16T04:35:17;0.60;;;0.60;;
18224;SDS011;9237;48.590;8.854;2022-10-16T04:37:44;0.70;;;0.70;;
18224;SDS011;9237;48.590;8.854;2022-10-16T04:40:11;0.70;;;0.70;;
18224;SDS011;9237;48.590;8.854;2022-10-16T04:42:38;0.70;;;0.70;;
18224;SDS011;9237;48.590;8.854;2022-10-16T04:45:06;0.70;;;0.70;;
18224;SDS011;9237;48.590;8.854;2022-10-16T04:47:33;0.70;;;0.70;;
18224;SDS011;9237;48.590;8.854;2022-10-16T04:50:01;0.70;;;0.70;;
18224;SDS011;9237;48.590;8.854;2022-10-16T04:52:29;0.70;;;0.70;;
18224;SDS011;9237;48.590;8.854;2022-10-16T04:54:56;0.70;;;0.70;;
18224;SDS011;9237;48.590;8.854;2022-10-16T04:57:26;0.70;;;0.70;;
18224;SDS011;9237;48.590;8.854;2022-10-16T04:59:53;0.70;;;0.70;;
18224;SDS011;9237;48.590;8.854;2022-10-16T05:02:19;0.70;;;0.70;;
18224;SDS011;9237;48.590;8.854;2022-10-16T05:04:46;0.70;;;0.70;;
18224;SDS011;9237;48.590;8.854;2022-10-16T05:07:14;0.70;;;0.70;;
18224;SDS011;9237;48.590;8.854;2022-10-16T05:09:41;0.70;;;0.70;;
18224;SDS011;9237;48.590;8.854;2022-10-16T05:12:08;0.70;;;0.70;;
18224;SDS011;9237;48.590;8.854;2022-10-16T05:14:35;0.60;;;0.60;;
18224;SDS011;9237;48.590;8.854;2022-10-16T05:17:02;0.63;;;0.63;;
18224;SDS011;9237;48.590;8.854;2022-10-16T05:19:29;0.60;;;0.60;;
18224;SDS011;9237;48.590;8.854;2022-10-16T05:21:56;0.60;;;0.60;;
18224;SDS011;9237;48.590;8.854;2022-10-16T05:24:24;0.70;;;0.70;;
18224;SDS011;9237;48.590;8.854;2022-10-16T05:26:51;0.70;;;0.70;;
18224;SDS011;9237;48.590;8.854;2022-10-16T05:29:17;0.70;;;0.70;;
18224;SDS011;9237;48.590;8.854;2022-10-16T05:31:44;0.60;;;0.60;;
18224;SDS011;9237;48.590;8.854;2022-10-16T05:34:11;0.70;;;0.70;;
18224;SDS011;9237;48.590;8.854;2022-10-16T05:36:38;0.70;;;0.70;;
18224;SDS011;9237;48.590;8.854;2022-10-16T05:39:05;0.70;;;0.70;;
18224;SDS011;9237;48.590;8.854;2022-10-16T05:41:33;0.70;;;0.70;;
18224;SDS011;9237;48.590;8.854;2022-10-16T05:44:00;0.70;;;0.70;;
18224;SDS011;9237;48.590;8.854;2022-10-16T05:46:29;0.60;;;0.60;;
18224;SDS011;9237;48.590;8.854;2022-10-16T05:48:56;0.70;;;0.70;;
18224;SDS011;9237;48.590;8.854;2022-10-16T05:51:25;0.60;;;0.60;;
18224;SDS011;9237;48.590;8.854;2022-10-16T05:54:19;0.70;;;0.70;;
18224;SDS011;9237;48.590;8.854;2022-10-16T05:56:47;0.60;;;0.60;;
18224;SDS011;9237;48.590;8.854;2022-10-16T05:59:14;0.70;;;0.70;;
18224;SDS011;9237;48.590;8.854;2022-10-16T06:01:41;0.70;;;0.70;;
18224;SDS011;9237;48.590;8.854;2022-10-16T06:04:08;0.70;;;0.70;;
18224;SDS011;9237;48.590;8.854;2022-10-16T06:06:35;0.70;;;0.70;;
18224;SDS011;9237;48.590;8.854;2022-10-16T06:09:02;0.70;;;0.70;;
18224;SDS011;9237;48.590;8.854;2022-10-16T06:11:30;0.70;;;0.70;;
18224;SDS011;9237;48.590;8.854;2022-10-16T06:13:59;0.60;;;0.60;;
18224;SDS011;9237;48.590;8.854;2022-10-16T06:16:31;0.70;;;0.70;;
18224;SDS011;9237;48.590;8.854;2022-10-16T06:18:58;0.70;;;0.70;;
18224;SDS011;9237;48.590;8.854;2022-10-16T06:21:26;0.70;;;0.70;;
18224;SDS011;9237;48.590;8.854;2022-10-16T06:23:54;0.70;;;0.70;;
18224;SDS011;9237;48.590;8.854;2022-10-16T06:26:23;0.70;;;0.70;;
18224;SDS011;9237;48.590;8.854;2022-10-16T06:28:51;0.70;;;0.70;;
18224;SDS011;9237;48.590;8.854;2022-10-16T06:31:21;0.70;;;0.70;;
18224;SDS011;9237;48.590;8.854;2022-10-16T06:33:50;0.70;;;0.70;;
18224;SDS011;9237;48.590;8.854;2022-10-16T06:36:17;0.70;;;0.70;;
18224;SDS011;9237;48.590;8.854;2022-10-16T06:38:44;0.70;;;0.70;;
18224;SDS011;9237;48.590;8.854;2022-10-16T06:41:12;0.70;;;0.70;;
18224;SDS011;9237;48.590;8.854;2022-10-16T06:43:40;0.70;;;0.70;;
18224;SDS011;9237;48.590;8.854;2022-10-16T06:46:07;0.70;;;0.70;;
18224;SDS011;9237;48.590;8.854;2022-10-16T06:48:37;0.60;;;0.60;;
18224;SDS011;9237;48.590;8.854;2022-10-16T06:51:04;0.70;;;0.70;;
18224;SDS011;9237;48.590;8.854;2022-10-16T06:53:33;0.70;;;0.70;;
18224;SDS011;9237;48.590;8.854;2022-10-16T06:56:06;0.70;;;0.70;;
18224;SDS011;9237;48.590;8.854;2022-10-16T06:58:34;0.60;;;0.60;;
18224;SDS011;9237;48.590;8.854;2022-10-16T07:01:00;0.70;;;0.70;;
18224;SDS011;9237;48.590;8.854;2022-10-16T07:03:27;0.60;;;0.60;;
18224;SDS011;9237;48.590;8.854;2022-10-16T07:05:55;0.70;;;0.70;;
18224;SDS011;9237;48.590;8.854;2022-10-16T07:08:22;0.70;;;0.70;;
18224;SDS011;9237;48.590;8.854;2022-10-16T07:10:57;0.70;;;0.70;;
18224;SDS011;9237;48.590;8.854;2022-10-16T07:13:25;0.70;;;0.70;;
18224;SDS011;9237;48.590;8.854;2022-10-16T07:15:52;0.60;;;0.60;;
18224;SDS011;9237;48.590;8.854;2022-10-16T07:18:18;0.70;;;0.70;;
18224;SDS011;9237;48.590;8.854;2022-10-16T07:20:45;0.70;;;0.70;;
18224;SDS011;9237;48.590;8.854;2022-10-16T07:23:14;0.50;;;0.50;;
18224;SDS011;9237;48.590;8.854;2022-10-16T07:25:40;0.70;;;0.70;;
18224;SDS011;9237;48.590;8.854;2022-10-16T07:28:07;0.70;;;0.70;;
18224;SDS011;9237;48.590;8.854;2022-10-16T07:30:35;0.70;;;0.70;;
18224;SDS011;9237;48.590;8.854;2022-10-16T07:33:03;0.70;;;0.70;;
18224;SDS011;9237;48.590;8.854;2022-10-16T07:35:29;0.70;;;0.70;;
18224;SDS011;9237;48.590;8.854;2022-10-16T07:37:56;0.70;;;0.70;;
18224;SDS011;9237;48.590;8.854;2022-10-16T07:40:24;0.70;;;0.70;;
18224;SDS011;9237;48.590;8.854;2022-10-16T07:42:52;0.70;;;0.70;;
18224;SDS011;9237;48.590;8.854;2022-10-16T07:45:19;0.70;;;0.70;;
18224;SDS011;9237;48.590;8.854;2022-10-16T07:47:46;0.70;;;0.70;;
18224;SDS011;9237;48.590;8.854;2022-10-16T07:50:13;0.70;;;0.70;;
18224;SDS011;9237;48.590;8.854;2022-10-16T07:52:39;0.67;;;0.67;;
18224;SDS011;9237;48.590;8.854;2022-10-16T07:55:07;0.70;;;0.70;;
18224;SDS011;9237;48.590;8.854;2022-10-16T07:57:35;0.60;;;0.60;;
18224;SDS011;9237;48.590;8.854;2022-10-16T08:00:02;0.60;;;0.60;;
18224;SDS011;9237;48.590;8.854;2022-10-16T08:02:30;0.60;;;0.60;;
18224;SDS011;9237;48.590;8.854;2022-10-16T08:04:58;0.60;;;0.60;;
18224;SDS011;9237;48.590;8.854;2022-10-16T08:07:25;0.60;;;0.60;;
18224;SDS011;9237;48.590;8.854;2022-10-16T08:09:51;0.60;;;0.60;;
18224;SDS011;9237;48.590;8.854;2022-10-16T08:12:18;0.60;;;0.60;;
18224;SDS011;9237;48.590;8.854;2022-10-16T08:14:46;0.70;;;0.70;;
18224;SDS011;9237;48.590;8.854;2022-10-16T08:17:13;0.60;;;0.60;;
18224;SDS011;9237;48.590;8.854;2022-10-16T08:19:43;0.60;;;0.60;;
18224;SDS011;9237;48.590;8.854;2022-10-16T08:22:11;0.60;;;0.60;;
18224;SDS011;9237;48.590;8.854;2022-10-16T08:24:38;0.60;;;0.60;;
18224;SDS011;9237;48.590;8.854;2022-10-16T08:27:05;0.60;;;0.60;;
18224;SDS011;9237;48.590;8.854;2022-10-16T08:29:34;0.70;;;0.70;;
18224;SDS011;9237;48.590;8.854;2022-10-16T08:32:03;0.63;;;0.63;;
18224;SDS011;9237;48.590;8.854;2022-10-16T08:34:30;0.60;;;0.60;;
18224;SDS011;9237;48.590;8.854;2022-10-16T08:36:56;0.60;;;0.60;;
18224;SDS011;9237;48.590;8.854;2022-10-16T08:39:23;0.60;;;0.60;;
18224;SDS011;9237;48.590;8.854;2022-10-16T08:41:56;0.60;;;0.60;;
18224;SDS011;9237;48.590;8.854;2022-10-16T08:47:39;0.60;;;0.60;;
18224;SDS011;9237;48.590;8.854;2022-10-16T08:50:14;0.60;;;0.60;;
18224;SDS011;9237;48.590;8.854;2022-10-16T08:52:47;0.60;;;0.60;;
18224;SDS011;9237;48.590;8.854;2022-10-16T08:55:17;0.60;;;0.60;;
18224;SDS011;9237;48.590;8.854;2022-10-16T08:57:59;0.60;;;0.60;;
18224;SDS011;9237;48.590;8.854;2022-10-16T09:00:27;0.60;;;0.60;;
18224;SDS011;9237;48.590;8.854;2022-10-16T09:02:57;0.60;;;0.60;;
18224;SDS011;9237;48.590;8.854;2022-10-16T09:05:38;0.60;;;0.60;;
18224;SDS011;9237;48.590;8.854;2022-10-16T09:08:22;0.60;;;0.60;;
18224;SDS011;9237;48.590;8.854;2022-10-16T09:10:56;0.60;;;0.60;;
18224;SDS011;9237;48.590;8.854;2022-10-16T09:13:27;0.63;;;0.63;;
18224;SDS011;9237;48.590;8.854;2022-10-16T09:15:58;0.63;;;0.63;;
18224;SDS011;9237;48.590;8.854;2022-10-16T09:18:40;0.50;;;0.50;;
18224;SDS011;9237;48.590;8.854;2022-10-16T09:21:12;0.50;;;0.50;;
18224;SDS011;9237;48.590;8.854;2022-10-16T09:23:42;0.50;;;0.50;;
18224;SDS011;9237;48.590;8.854;2022-10-16T09:26:10;0.50;;;0.50;;
18224;SDS011;9237;48.590;8.854;2022-10-16T09:28:39;0.50;;;0.50;;
18224;SDS011;9237;48.590;8.854;2022-10-16T09:31:08;0.50;;;0.50;;
18224;SDS011;9237;48.590;8.854;2022-10-16T09:33:41;0.50;;;0.50;;
18224;SDS011;9237;48.590;8.854;2022-10-16T09:36:09;0.50;;;0.50;;
18224;SDS011;9237;48.590;8.854;2022-10-16T09:38:37;0.50;;;0.50;;
18224;SDS011;9237;48.590;8.854;2022-10-16T09:41:14;0.50;;;0.50;;
18224;SDS011;9237;48.590;8.854;2022-10-16T09:43:46;0.50;;;0.50;;
18224;SDS011;9237;48.590;8.854;2022-10-16T09:46:21;0.50;;;0.50;;
18224;SDS011;9237;48.590;8.854;2022-10-16T09:48:53;0.50;;;0.50;;
18224;SDS011;9237;48.590;8.854;2022-10-16T09:51:23;0.50;;;0.50;;
18224;SDS011;9237;48.590;8.854;2022-10-16T09:53:54;0.52;;;0.52;;
18224;SDS011;9237;48.590;8.854;2022-10-16T09:56:24;0.50;;;0.50;;
18224;SDS011;9237;48.590;8.854;2022-10-16T09:58:52;0.50;;;0.50;;
18224;SDS011;9237;48.590;8.854;2022-10-16T10:01:21;0.50;;;0.50;;
18224;SDS011;9237;48.590;8.854;2022-10-16T10:03:55;0.50;;;0.50;;
18224;SDS011;9237;48.590;8.854;2022-10-16T10:06:26;0.60;;;0.60;;
18224;SDS011;9237;48.590;8.854;2022-10-16T10:08:56;0.50;;;0.50;;
18224;SDS011;9237;48.590;8.854;2022-10-16T10:14:21;0.50;;;0.50;;
18224;SDS011;9237;48.590;8.854;2022-10-16T10:16:50;0.60;;;0.60;;
18224;SDS011;9237;48.590;8.854;2022-10-16T10:19:19;0.60;;;0.60;;
18224;SDS011;9237;48.590;8.854;2022-10-16T10:21:47;0.60;;;0.60;;
18224;SDS011;9237;48.590;8.854;2022-10-16T10:24:16;0.50;;;0.50;;
18224;SDS011;9237;48.590;8.854;2022-10-16T10:26:53;0.50;;;0.50;;
18224;SDS011;9237;48.590;8.854;2022-10-16T10:29:27;0.50;;;0.50;;
18224;SDS011;9237;48.590;8.854;2022-10-16T10:32:03;0.50;;;0.50;;
18224;SDS011;9237;48.590;8.854;2022-10-16T10:34:42;0.50;;;0.50;;
18224;SDS011;9237;48.590;8.854;2022-10-16T10:37:38;0.50;;;0.50;;
18224;SDS011;9237;48.590;8.854;2022-10-16T10:40:15;0.50;;;0.50;;
18224;SDS011;9237;48.590;8.854;2022-10-16T10:42:51;0.50;;;0.50;;
18224;SDS011;9237;48.590;8.854;2022-10-16T10:45:26;0.50;;;0.50;;
18224;SDS011;9237;48.590;8.854;2022-10-16T10:48:06;0.50;;;0.50;;
18224;SDS011;9237;48.590;8.854;2022-10-16T10:50:48;0.50;;;0.50;;
18224;SDS011;9237;48.590;8.854;2022-10-16T10:53:21;0.50;;;0.50;;
18224;SDS011;9237;48.590;8.854;2022-10-16T10:56:00;0.50;;;0.50;;
18224;SDS011;9237;48.590;8.854;2022-10-16T11:01:37;0.50;;;0.50;;
18224;SDS011;9237;48.590;8.854;2022-10-16T11:04:18;0.50;;;0.50;;
18224;SDS011;9237;48.590;8.854;2022-10-16T11:07:07;0.50;;;0.50;;
18224;SDS011;9237;48.590;8.854;2022-10-16T11:09:40;0.50;;;0.50;;
18224;SDS011;9237;48.590;8.854;2022-10-16T11:12:11;0.40;;;0.40;;
18224;SDS011;9237;48.590;8.854;2022-10-16T11:14:46;0.50;;;0.50;;
18224;SDS011;9237;48.590;8.854;2022-10-16T11:17:18;0.40;;;0.40;;
18224;SDS011;9237;48.590;8.854;2022-10-16T11:19:51;0.40;;;0.40;;
18224;SDS011;9237;48.590;8.854;2022-10-16T11:22:24;0.40;;;0.40;;
18224;SDS011;9237;48.590;8.854;2022-10-16T11:24:59;0.40;;;0.40;;
18224;SDS011;9237;48.590;8.854;2022-10-16T11:27:33;0.40;;;0.40;;
18224;SDS011;9237;48.590;8.854;2022-10-16T11:30:04;0.45;;;0.45;;
18224;SDS011;9237;48.590;8.854;2022-10-16T11:32:40;0.50;;;0.50;;
18224;SDS011;9237;48.590;8.854;2022-10-16T11:35:19;0.50;;;0.50;;
18224;SDS011;9237;48.590;8.854;2022-10-16T11:37:51;0.50;;;0.50;;
18224;SDS011;9237;48.590;8.854;2022-10-16T11:40:24;0.40;;;0.40;;
18224;SDS011;9237;48.590;8.854;2022-10-16T11:42:54;0.40;;;0.40;;
18224;SDS011;9237;48.590;8.854;2022-10-16T11:45:27;0.50;;;0.50;;
18224;SDS011;9237;48.590;8.854;2022-10-16T11:48:01;0.50;;;0.50;;
18224;SDS011;9237;48.590;8.854;2022-10-16T11:50:34;0.50;;;0.50;;
18224;SDS011;9237;48.590;8.854;2022-10-16T11:53:09;0.50;;;0.50;;
18224;SDS011;9237;48.590;8.854;2022-10-16T11:55:44;0.50;;;0.50;;
18224;SDS011;9237;48.590;8.854;2022-10-16T11:58:14;0.50;;;0.50;;
18224;SDS011;9237;48.590;8.854;2022-10-16T12:00:51;0.50;;;0.50;;
18224;SDS011;9237;48.590;8.854;2022-10-16T12:03:26;0.50;;;0.50;;
18224;SDS011;9237;48.590;8.854;2022-10-16T12:06:05;0.50;;;0.50;;
18224;SDS011;9237;48.590;8.854;2022-10-16T12:08:41;0.60;;;0.60;;
18224;SDS011;9237;48.590;8.854;2022-10-16T12:11:20;0.52;;;0.52;;
18224;SDS011;9237;48.590;8.854;2022-10-16T12:13:50;0.60;;;0.60;;
18224;SDS011;9237;48.590;8.854;2022-10-16T12:16:21;0.50;;;0.50;;
18224;SDS011;9237;48.590;8.854;2022-10-16T12:18:49;0.50;;;0.50;;
18224;SDS011;9237;48.590;8.854;2022-10-16T12:21:29;0.50;;;0.50;;
18224;SDS011;9237;48.590;8.854;2022-10-16T12:23:58;0.50;;;0.50;;
18224;SDS011;9237;48.590;8.854;2022-10-16T12:26:29;0.50;;;0.50;;
18224;SDS011;9237;48.590;8.854;2022-10-16T12:29:17;0.50;;;0.50;;
18224;SDS011;9237;48.590;8.854;2022-10-16T12:31:52;0.50;;;0.50;;
18224;SDS011;9237;48.590;8.854;2022-10-16T12:34:21;0.50;;;0.50;;
18224;SDS011;9237;48.590;8.854;2022-10-16T12:36:52;0.50;;;0.50;;
18224;SDS011;9237;48.590;8.854;2022-10-16T12:39:22;0.43;;;0.43;;
18224;SDS011;9237;48.590;8.854;2022-10-16T12:42:00;0.43;;;0.43;;
18224;SDS011;9237;48.590;8.854;2022-10-16T12:44:31;0.50;;;0.50;;
18224;SDS011;9237;48.590;8.854;2022-10-16T12:47:00;0.40;;;0.40;;
18224;SDS011;9237;48.590;8.854;2022-10-16T12:49:31;0.40;;;0.40;;
18224;SDS011;9237;48.590;8.854;2022-10-16T12:52:02;0.40;;;0.40;;
18224;SDS011;9237;48.590;8.854;2022-10-16T12:54:31;0.40;;;0.40;;
18224;SDS011;9237;48.590;8.854;2022-10-16T12:57:07;0.40;;;0.40;;
18224;SDS011;9237;48.590;8.854;2022-10-16T12:59:48;0.40;;;0.40;;
18224;SDS011;9237;48.590;8.854;2022-10-16T13:05:35;0.40;;;0.40;;
18224;SDS011;9237;48.590;8.854;2022-10-16T13:08:18;0.40;;;0.40;;
18224;SDS011;9237;48.590;8.854;2022-10-16T13:11:00;0.47;;;0.47;;
18224;SDS011;9237;48.590;8.854;2022-10-16T13:13:52;0.47;;;0.47;;
18224;SDS011;9237;48.590;8.854;2022-10-16T13:16:35;0.50;;;0.50;;
18224;SDS011;9237;48.590;8.854;2022-10-16T13:19:15;0.40;;;0.40;;
18224;SDS011;9237;48.590;8.854;2022-10-16T13:21:51;0.45;;;0.45;;
18224;SDS011;9237;48.590;8.854;2022-10-16T13:24:32;0.40;;;0.40;;
18224;SDS011;9237;48.590;8.854;2022-10-16T13:27:11;0.40;;;0.40;;
18224;SDS011;9237;48.590;8.854;2022-10-16T13:29:48;0.40;;;0.40;;
18224;SDS011;9237;48.590;8.854;2022-10-16T13:32:20;0.40;;;0.40;;
18224;SDS011;9237;48.590;8.854;2022-10-16T13:34:48;0.40;;;0.40;;
18224;SDS011;9237;48.590;8.854;2022-10-16T13:37:18;0.40;;;0.40;;
18224;SDS011;9237;48.590;8.854;2022-10-16T13:39:47;0.50;;;0.50;;
18224;SDS011;9237;48.590;8.854;2022-10-16T13:42:18;0.47;;;0.47;;
18224;SDS011;9237;48.590;8.854;2022-10-16T13:44:50;0.40;;;0.40;;
18224;SDS011;9237;48.590;8.854;2022-10-16T13:47:19;0.40;;;0.40;;
18224;SDS011;9237;48.590;8.854;2022-10-16T13:49:47;0.45;;;0.45;;
18224;SDS011;9237;48.590;8.854;2022-10-16T13:52:25;0.40;;;0.40;;
18224;SDS011;9237;48.590;8.854;2022-10-16T13:54:52;0.50;;;0.50;;
18224;SDS011;9237;48.590;8.854;2022-10-16T13:57:21;0.50;;;0.50;;
18224;SDS011;9237;48.590;8.854;2022-10-16T13:59:49;0.50;;;0.50;;
18224;SDS011;9237;48.590;8.854;2022-10-16T14:02:18;0.50;;;0.50;;
18224;SDS011;9237;48.590;8.854;2022-10-16T14:04:48;0.47;;;0.47;;
18224;SDS011;9237;48.590;8.854;2022-10-16T14:07:18;0.50;;;0.50;;
18224;SDS011;9237;48.590;8.854;2022-10-16T14:09:49;0.50;;;0.50;;
18224;SDS011;9237;48.590;8.854;2022-10-16T14:12:17;0.50;;;0.50;;
18224;SDS011;9237;48.590;8.854;2022-10-16T14:14:46;0.50;;;0.50;;
18224;SDS011;9237;48.590;8.854;2022-10-16T14:17:15;0.40;;;0.40;;
18224;SDS011;9237;48.590;8.854;2022-10-16T14:19:45;0.40;;;0.40;;
18224;SDS011;9237;48.590;8.854;2022-10-16T14:22:21;0.50;;;0.50;;
18224;SDS011;9237;48.590;8.854;2022-10-16T14:24:54;0.40;;;0.40;;
18224;SDS011;9237;48.590;8.854;2022-10-16T14:27:23;0.40;;;0.40;;
18224;SDS011;9237;48.590;8.854;2022-10-16T14:30:05;0.40;;;0.40;;
18224;SDS011;9237;48.590;8.854;2022-10-16T14:32:39;0.40;;;0.40;;
18224;SDS011;9237;48.590;8.854;2022-10-16T14:35:20;0.50;;;0.50;;
18224;SDS011;9237;48.590;8.854;2022-10-16T14:37:51;0.40;;;0.40;;
18224;SDS011;9237;48.590;8.854;2022-10-16T14:40:18;0.40;;;0.40;;
18224;SDS011;9237;48.590;8.854;2022-10-16T14:42:49;0.40;;;0.40;;
18224;SDS011;9237;48.590;8.854;2022-10-16T14:45:19;0.40;;;0.40;;
18224;SDS011;9237;48.590;8.854;2022-10-16T14:47:48;0.40;;;0.40;;
18224;SDS011;9237;48.590;8.854;2022-10-16T14:50:17;0.43;;;0.43;;
18224;SDS011;9237;48.590;8.854;2022-10-16T14:52:44;0.47;;;0.47;;
18224;SDS011;9237;48.590;8.854;2022-10-16T14:55:11;0.40;;;0.40;;
18224;SDS011;9237;48.590;8.854;2022-10-16T14:57:38;0.40;;;0.40;;
18224;SDS011;9237;48.590;8.854;2022-10-16T15:00:10;0.45;;;0.45;;
18224;SDS011;9237;48.590;8.854;2022-10-16T15:02:43;0.50;;;0.50;;
18224;SDS011;9237;48.590;8.854;2022-10-16T15:05:11;0.40;;;0.40;;
18224;SDS011;9237;48.590;8.854;2022-10-16T15:07:40;0.40;;;0.40;;
18224;SDS011;9237;48.590;8.854;2022-10-16T15:10:08;0.40;;;0.40;;
18224;SDS011;9237;48.590;8.854;2022-10-16T15:12:35;0.40;;;0.40;;
18224;SDS011;9237;48.590;8.854;2022-10-16T15:15:02;0.40;;;0.40;;
18224;SDS011;9237;48.590;8.854;2022-10-16T15:17:49;0.40;;;0.40;;
18224;SDS011;9237;48.590;8.854;2022-10-16T15:20:17;0.40;;;0.40;;
18224;SDS011;9237;48.590;8.854;2022-10-16T15:22:44;0.40;;;0.40;;
18224;SDS011;9237;48.590;8.854;2022-10-16T15:25:12;0.40;;;0.40;;
18224;SDS011;9237;48.590;8.854;2022-10-16T15:27:53;0.40;;;0.40;;
18224;SDS011;9237;48.590;8.854;2022-10-16T15:30:20;0.40;;;0.40;;
18224;SDS011;9237;48.590;8.854;2022-10-16T15:32:49;0.40;;;0.40;;
18224;SDS011;9237;48.590;8.854;2022-10-16T15:35:15;0.40;;;0.40;;